Monday, December 18, 2017, 12:52 PM GMT
Back to Local

CWFQ, Frelighsburg

Location: , , Canada Lat: 45.05
Local Time: 12:52 PM GMT (12:52 GMT) Lon: -72.833
Time Zone: GMT Elev: 498 ft

Show me the last for .
Show Coded

Time T Td Feel RH Dir Speed Gust Alt SLP Vis Weather Sky Remarks
2017-12-18 12:00 13 4 - 67 170° 2 - - 30.06 0 None
2017-12-18 11:00 11 4 3 70 160° 5 - - 30.09 0 None
2017-12-18 10:00 11 3 5 70 160° 3 - - 30.11 0 None
2017-12-18 09:00 10 3 4 72 170° 3 - - 30.13 0 None
2017-12-18 08:00 9 3 - 77 150° 2 - - 30.16 0 None
2017-12-18 07:00 8 1 - 74 150° 2 - - 30.18 0 None
2017-12-18 06:00 6 1 0 77 160° 3 - - 30.19 0 None
2017-12-18 05:00 5 -1 -3 77 140° 3 - - 30.20 0 None
2017-12-18 04:00 3 -1 -7 81 170° 5 - - 30.24 0 None
2017-12-18 03:00 5 1 -2 79 170° 3 - - 30.25 0 None
2017-12-18 02:00 4 0 -3 82 160° 3 - - 30.27 0 None
2017-12-18 01:00 3 -1 -4 84 170° 3 - - 30.28 0 None
2017-12-18 00:00 4 1 - 83 170° 2 - - 30.29 0 None
2017-12-17 23:00 4 0 - 83 360° 1 - - 30.30 0 None
2017-12-17 22:00 4 0 - 83 - Calm - - 30.31 0 None
2017-12-17 21:00 6 1 - 81 270° 1 - - 30.31 0 None
2017-12-17 20:00 7 1 0 74 340° 3 - - 30.29 0 None
2017-12-17 19:00 5 -1 -2 72 360° 3 - - 30.29 0 None
2017-12-17 18:00 6 -1 - 71 330° 2 - - 30.31 0 None
2017-12-17 17:00 6 -1 - 73 270° 2 - - 30.32 0 None
2017-12-17 16:00 5 0 - 77 340° 1 - - 30.33 0 1-hr Precip Total: 0.01"
2017-12-17 15:00 3 -1 -5 81 220° 3 - - 30.34 0 None
2017-12-17 14:00 3 -2 -5 80 230° 3 - - 30.31 0 1-hr Precip Total: 0.02"
2017-12-17 13:00 2 -2 - 82 310° 1 - - 30.29 0 None

Support USWX by starting your Amazon purchase here.